Terminal Aerodrome Forecast
Issued by NWS Duluth, MN

Current Version | Previous Version | Text Only | Print | Product List | Glossary On
Versions: 1 2 3 4 5 6 7 8 9 10 11 12 13 14 15 16
715
FTUS43 KDLH 211723 AAA
TAFINL
TAF AMD
KINL 211723Z 2117/2218 18009G16KT P6SM OVC020
     FM212100 17007KT P6SM -SHRA VCTS OVC015CB
     FM220000 18006KT P6SM -SHRA OVC010
     FM220300 23006KT P6SM OVC025
     FM220500 24006KT P6SM BKN060
     FM221100 25007KT P6SM SCT060=

USA.gov is the U.S. government's official web portal to all federal, state and local government web resources and services.